sensor_id;sensor_type;location;lat;lon;timestamp;temperature;humidity
30628;DHT22;17394;50.890;4.724;2022-09-09T00:02:05;13.50;99.90
30628;DHT22;17394;50.890;4.724;2022-09-09T00:04:37;13.50;99.90
30628;DHT22;17394;50.890;4.724;2022-09-09T00:07:29;13.50;99.90
30628;DHT22;17394;50.890;4.724;2022-09-09T00:13:18;13.60;99.90
30628;DHT22;17394;50.890;4.724;2022-09-09T00:16:12;13.60;99.90
30628;DHT22;17394;50.890;4.724;2022-09-09T00:22:16;13.60;99.90
30628;DHT22;17394;50.890;4.724;2022-09-09T00:27:46;13.60;99.90
30628;DHT22;17394;50.890;4.724;2022-09-09T00:30:26;13.60;99.90
30628;DHT22;17394;50.890;4.724;2022-09-09T00:33:13;13.60;99.90
30628;DHT22;17394;50.890;4.724;2022-09-09T00:36:01;13.60;99.90
30628;DHT22;17394;50.890;4.724;2022-09-09T00:38:42;13.60;99.90
30628;DHT22;17394;50.890;4.724;2022-09-09T00:41:30;13.60;99.90
30628;DHT22;17394;50.890;4.724;2022-09-09T00:44:34;13.60;99.90
30628;DHT22;17394;50.890;4.724;2022-09-09T00:52:45;13.50;99.90
30628;DHT22;17394;50.890;4.724;2022-09-09T00:58:09;13.50;99.90
30628;DHT22;17394;50.890;4.724;2022-09-09T01:01:06;13.50;99.90
30628;DHT22;17394;50.890;4.724;2022-09-09T01:03:53;13.50;99.90
30628;DHT22;17394;50.890;4.724;2022-09-09T01:06:36;13.60;99.90
30628;DHT22;17394;50.890;4.724;2022-09-09T01:09:32;13.60;99.90
30628;DHT22;17394;50.890;4.724;2022-09-09T01:12:40;13.70;99.90
30628;DHT22;17394;50.890;4.724;2022-09-09T01:15:24;13.70;99.90
30628;DHT22;17394;50.890;4.724;2022-09-09T01:18:06;13.70;99.90
30628;DHT22;17394;50.890;4.724;2022-09-09T01:26:45;13.70;99.90
30628;DHT22;17394;50.890;4.724;2022-09-09T01:29:21;13.70;99.90
30628;DHT22;17394;50.890;4.724;2022-09-09T01:36:29;13.70;99.90
30628;DHT22;17394;50.890;4.724;2022-09-09T01:38:53;13.70;99.90
30628;DHT22;17394;50.890;4.724;2022-09-09T01:41:20;13.70;99.90
30628;DHT22;17394;50.890;4.724;2022-09-09T01:43:46;13.70;99.90
30628;DHT22;17394;50.890;4.724;2022-09-09T01:46:14;13.70;99.90
30628;DHT22;17394;50.890;4.724;2022-09-09T01:48:43;13.70;99.90
30628;DHT22;17394;50.890;4.724;2022-09-09T01:51:10;13.70;99.90
30628;DHT22;17394;50.890;4.724;2022-09-09T01:53:38;13.70;99.90
30628;DHT22;17394;50.890;4.724;2022-09-09T02:02:13;13.70;99.90
30628;DHT22;17394;50.890;4.724;2022-09-09T02:04:44;13.70;99.90
30628;DHT22;17394;50.890;4.724;2022-09-09T02:10:46;13.80;99.90
30628;DHT22;17394;50.890;4.724;2022-09-09T02:13:16;13.80;99.90
30628;DHT22;17394;50.890;4.724;2022-09-09T02:16:01;13.80;99.90
30628;DHT22;17394;50.890;4.724;2022-09-09T02:18:44;13.80;99.90
30628;DHT22;17394;50.890;4.724;2022-09-09T02:21:17;13.90;99.90
30628;DHT22;17394;50.890;4.724;2022-09-09T02:23:47;13.90;99.90
30628;DHT22;17394;50.890;4.724;2022-09-09T02:26:21;13.90;99.90
30628;DHT22;17394;50.890;4.724;2022-09-09T02:28:51;13.90;99.90
30628;DHT22;17394;50.890;4.724;2022-09-09T02:31:22;13.90;99.90
30628;DHT22;17394;50.890;4.724;2022-09-09T02:34:00;13.90;99.90
30628;DHT22;17394;50.890;4.724;2022-09-09T02:36:32;14.00;99.90
30628;DHT22;17394;50.890;4.724;2022-09-09T02:39:01;14.00;99.90
30628;DHT22;17394;50.890;4.724;2022-09-09T02:41:40;14.00;99.90
30628;DHT22;17394;50.890;4.724;2022-09-09T02:44:16;14.00;99.90
30628;DHT22;17394;50.890;4.724;2022-09-09T02:50:18;14.00;99.90
30628;DHT22;17394;50.890;4.724;2022-09-09T02:53:24;14.00;99.90
30628;DHT22;17394;50.890;4.724;2022-09-09T02:56:09;14.00;99.90
30628;DHT22;17394;50.890;4.724;2022-09-09T02:58:40;14.00;99.90
30628;DHT22;17394;50.890;4.724;2022-09-09T03:01:06;14.00;99.90
30628;DHT22;17394;50.890;4.724;2022-09-09T03:03:33;14.00;99.90
30628;DHT22;17394;50.890;4.724;2022-09-09T03:05:59;14.10;99.90
30628;DHT22;17394;50.890;4.724;2022-09-09T03:08:25;14.10;99.90
30628;DHT22;17394;50.890;4.724;2022-09-09T03:10:54;14.10;99.90
30628;DHT22;17394;50.890;4.724;2022-09-09T03:13:20;14.10;99.90
30628;DHT22;17394;50.890;4.724;2022-09-09T03:15:48;14.20;99.90
30628;DHT22;17394;50.890;4.724;2022-09-09T03:18:14;14.20;99.90
30628;DHT22;17394;50.890;4.724;2022-09-09T03:20:41;14.10;99.90
30628;DHT22;17394;50.890;4.724;2022-09-09T03:23:08;14.20;99.90
30628;DHT22;17394;50.890;4.724;2022-09-09T03:25:34;14.20;99.90
30628;DHT22;17394;50.890;4.724;2022-09-09T03:28:01;14.20;99.90
30628;DHT22;17394;50.890;4.724;2022-09-09T03:30:28;14.20;99.90
30628;DHT22;17394;50.890;4.724;2022-09-09T03:32:54;14.20;99.90
30628;DHT22;17394;50.890;4.724;2022-09-09T03:35:21;14.20;99.90
30628;DHT22;17394;50.890;4.724;2022-09-09T03:37:47;14.20;99.90
30628;DHT22;17394;50.890;4.724;2022-09-09T03:40:15;14.30;99.90
30628;DHT22;17394;50.890;4.724;2022-09-09T03:42:41;14.20;99.90
30628;DHT22;17394;50.890;4.724;2022-09-09T03:45:09;14.30;99.90
30628;DHT22;17394;50.890;4.724;2022-09-09T03:47:37;14.30;99.90
30628;DHT22;17394;50.890;4.724;2022-09-09T03:50:05;14.30;99.90
30628;DHT22;17394;50.890;4.724;2022-09-09T03:52:39;14.30;99.90
30628;DHT22;17394;50.890;4.724;2022-09-09T03:55:07;14.30;99.90
30628;DHT22;17394;50.890;4.724;2022-09-09T03:57:35;14.30;99.90
30628;DHT22;17394;50.890;4.724;2022-09-09T04:00:05;14.30;99.90
30628;DHT22;17394;50.890;4.724;2022-09-09T04:02:31;14.30;99.90
30628;DHT22;17394;50.890;4.724;2022-09-09T04:04:57;14.30;99.90
30628;DHT22;17394;50.890;4.724;2022-09-09T04:07:23;14.30;99.90
30628;DHT22;17394;50.890;4.724;2022-09-09T04:09:49;14.30;99.90
30628;DHT22;17394;50.890;4.724;2022-09-09T04:12:15;14.20;99.90
30628;DHT22;17394;50.890;4.724;2022-09-09T04:14:42;14.30;99.90
30628;DHT22;17394;50.890;4.724;2022-09-09T04:17:08;14.20;99.90
30628;DHT22;17394;50.890;4.724;2022-09-09T04:19:34;14.20;99.90
30628;DHT22;17394;50.890;4.724;2022-09-09T04:22:00;14.20;99.90
30628;DHT22;17394;50.890;4.724;2022-09-09T04:24:26;14.10;99.90
30628;DHT22;17394;50.890;4.724;2022-09-09T04:26:54;14.10;99.90
30628;DHT22;17394;50.890;4.724;2022-09-09T04:29:21;14.20;99.90
30628;DHT22;17394;50.890;4.724;2022-09-09T04:31:47;14.10;99.90
30628;DHT22;17394;50.890;4.724;2022-09-09T04:34:13;14.20;99.90
30628;DHT22;17394;50.890;4.724;2022-09-09T04:36:39;14.20;99.90
30628;DHT22;17394;50.890;4.724;2022-09-09T04:39:06;14.30;99.90
30628;DHT22;17394;50.890;4.724;2022-09-09T04:41:32;14.30;99.90
30628;DHT22;17394;50.890;4.724;2022-09-09T04:43:58;14.30;99.90
30628;DHT22;17394;50.890;4.724;2022-09-09T04:46:26;14.30;99.90
30628;DHT22;17394;50.890;4.724;2022-09-09T04:48:52;14.40;99.90
30628;DHT22;17394;50.890;4.724;2022-09-09T04:51:19;14.40;99.90
30628;DHT22;17394;50.890;4.724;2022-09-09T04:53:45;14.30;99.90
30628;DHT22;17394;50.890;4.724;2022-09-09T04:56:18;14.30;99.90
30628;DHT22;17394;50.890;4.724;2022-09-09T04:58:44;14.20;99.90
30628;DHT22;17394;50.890;4.724;2022-09-09T05:01:15;14.30;99.90
30628;DHT22;17394;50.890;4.724;2022-09-09T05:03:43;14.20;99.90
30628;DHT22;17394;50.890;4.724;2022-09-09T05:06:17;14.30;99.90
30628;DHT22;17394;50.890;4.724;2022-09-09T05:08:45;14.30;99.90
30628;DHT22;17394;50.890;4.724;2022-09-09T05:11:22;14.30;99.90
30628;DHT22;17394;50.890;4.724;2022-09-09T05:13:53;14.50;99.90
30628;DHT22;17394;50.890;4.724;2022-09-09T05:16:20;14.30;99.90
30628;DHT22;17394;50.890;4.724;2022-09-09T05:18:47;14.30;99.90
30628;DHT22;17394;50.890;4.724;2022-09-09T05:21:17;14.30;99.90
30628;DHT22;17394;50.890;4.724;2022-09-09T05:23:45;14.30;99.90
30628;DHT22;17394;50.890;4.724;2022-09-09T05:26:15;14.30;99.90
30628;DHT22;17394;50.890;4.724;2022-09-09T05:28:42;14.30;99.90
30628;DHT22;17394;50.890;4.724;2022-09-09T05:31:10;14.30;99.90
30628;DHT22;17394;50.890;4.724;2022-09-09T05:33:46;14.40;99.90
30628;DHT22;17394;50.890;4.724;2022-09-09T05:36:18;14.40;99.90
30628;DHT22;17394;50.890;4.724;2022-09-09T05:38:46;14.50;99.90
30628;DHT22;17394;50.890;4.724;2022-09-09T05:41:13;14.50;99.90
30628;DHT22;17394;50.890;4.724;2022-09-09T05:43:44;14.50;99.90
30628;DHT22;17394;50.890;4.724;2022-09-09T05:46:13;14.60;99.90
30628;DHT22;17394;50.890;4.724;2022-09-09T05:48:43;14.60;99.90
30628;DHT22;17394;50.890;4.724;2022-09-09T05:51:13;14.60;99.90
30628;DHT22;17394;50.890;4.724;2022-09-09T05:53:43;14.70;99.90
30628;DHT22;17394;50.890;4.724;2022-09-09T05:56:15;14.70;99.90
30628;DHT22;17394;50.890;4.724;2022-09-09T05:58:42;14.90;99.90
30628;DHT22;17394;50.890;4.724;2022-09-09T06:01:20;14.90;99.90
30628;DHT22;17394;50.890;4.724;2022-09-09T06:03:49;15.00;99.90
30628;DHT22;17394;50.890;4.724;2022-09-09T06:06:23;15.00;99.90
30628;DHT22;17394;50.890;4.724;2022-09-09T06:08:56;15.00;99.90
30628;DHT22;17394;50.890;4.724;2022-09-09T06:11:30;15.10;99.90
30628;DHT22;17394;50.890;4.724;2022-09-09T06:13:58;15.10;99.90
30628;DHT22;17394;50.890;4.724;2022-09-09T06:16:27;15.10;99.90
30628;DHT22;17394;50.890;4.724;2022-09-09T06:18:55;15.20;99.90
30628;DHT22;17394;50.890;4.724;2022-09-09T06:21:27;15.10;99.90
30628;DHT22;17394;50.890;4.724;2022-09-09T06:23:54;15.10;99.90
30628;DHT22;17394;50.890;4.724;2022-09-09T06:26:27;15.10;99.90
30628;DHT22;17394;50.890;4.724;2022-09-09T06:28:55;15.10;99.90
30628;DHT22;17394;50.890;4.724;2022-09-09T06:31:26;15.10;99.90
30628;DHT22;17394;50.890;4.724;2022-09-09T06:33:58;15.10;99.90
30628;DHT22;17394;50.890;4.724;2022-09-09T06:36:37;15.20;99.90
30628;DHT22;17394;50.890;4.724;2022-09-09T06:39:04;15.30;99.90
30628;DHT22;17394;50.890;4.724;2022-09-09T06:41:32;15.30;99.90
30628;DHT22;17394;50.890;4.724;2022-09-09T06:43:58;15.40;99.90
30628;DHT22;17394;50.890;4.724;2022-09-09T06:46:30;15.40;99.90
30628;DHT22;17394;50.890;4.724;2022-09-09T06:48:58;15.40;99.90
30628;DHT22;17394;50.890;4.724;2022-09-09T06:51:33;15.50;99.90
30628;DHT22;17394;50.890;4.724;2022-09-09T06:54:03;15.60;99.90
30628;DHT22;17394;50.890;4.724;2022-09-09T06:56:33;15.70;99.90
30628;DHT22;17394;50.890;4.724;2022-09-09T06:59:03;15.80;99.90
30628;DHT22;17394;50.890;4.724;2022-09-09T07:01:38;15.80;99.90
30628;DHT22;17394;50.890;4.724;2022-09-09T07:04:07;15.80;99.90
30628;DHT22;17394;50.890;4.724;2022-09-09T07:06:41;15.80;99.90
30628;DHT22;17394;50.890;4.724;2022-09-09T07:09:12;15.80;99.90
30628;DHT22;17394;50.890;4.724;2022-09-09T07:11:46;15.80;99.90
30628;DHT22;17394;50.890;4.724;2022-09-09T07:14:13;15.80;99.90
30628;DHT22;17394;50.890;4.724;2022-09-09T07:16:45;15.80;99.90
30628;DHT22;17394;50.890;4.724;2022-09-09T07:19:13;15.80;99.90
30628;DHT22;17394;50.890;4.724;2022-09-09T07:21:40;15.90;99.90
30628;DHT22;17394;50.890;4.724;2022-09-09T07:24:06;15.90;99.90
30628;DHT22;17394;50.890;4.724;2022-09-09T07:26:38;15.90;99.90
30628;DHT22;17394;50.890;4.724;2022-09-09T07:29:05;15.90;99.90
30628;DHT22;17394;50.890;4.724;2022-09-09T07:31:35;16.30;99.90
30628;DHT22;17394;50.890;4.724;2022-09-09T07:34:05;16.00;99.90
30628;DHT22;17394;50.890;4.724;2022-09-09T07:36:35;16.00;99.90
30628;DHT22;17394;50.890;4.724;2022-09-09T07:39:08;16.00;99.90
30628;DHT22;17394;50.890;4.724;2022-09-09T07:41:43;16.10;99.90
30628;DHT22;17394;50.890;4.724;2022-09-09T07:44:28;16.10;99.90
30628;DHT22;17394;50.890;4.724;2022-09-09T07:46:54;16.00;99.90
30628;DHT22;17394;50.890;4.724;2022-09-09T07:49:20;16.00;99.90
30628;DHT22;17394;50.890;4.724;2022-09-09T07:51:47;16.10;99.90
30628;DHT22;17394;50.890;4.724;2022-09-09T07:54:18;16.10;99.90
30628;DHT22;17394;50.890;4.724;2022-09-09T07:56:46;16.10;99.90
30628;DHT22;17394;50.890;4.724;2022-09-09T07:59:13;16.10;99.90
30628;DHT22;17394;50.890;4.724;2022-09-09T08:01:53;16.10;99.90
30628;DHT22;17394;50.890;4.724;2022-09-09T08:04:22;16.20;99.90
30628;DHT22;17394;50.890;4.724;2022-09-09T08:07:01;16.30;99.90
30628;DHT22;17394;50.890;4.724;2022-09-09T08:09:29;16.40;99.90
30628;DHT22;17394;50.890;4.724;2022-09-09T08:11:58;16.40;99.90
30628;DHT22;17394;50.890;4.724;2022-09-09T08:14:25;16.50;99.90
30628;DHT22;17394;50.890;4.724;2022-09-09T08:16:52;16.60;99.90
30628;DHT22;17394;50.890;4.724;2022-09-09T08:19:22;16.60;99.90
30628;DHT22;17394;50.890;4.724;2022-09-09T08:21:49;16.70;99.90
30628;DHT22;17394;50.890;4.724;2022-09-09T08:24:15;16.80;99.90
30628;DHT22;17394;50.890;4.724;2022-09-09T08:26:45;16.90;99.90
30628;DHT22;17394;50.890;4.724;2022-09-09T08:29:13;17.00;99.90
30628;DHT22;17394;50.890;4.724;2022-09-09T08:31:49;17.20;99.90
30628;DHT22;17394;50.890;4.724;2022-09-09T08:34:17;17.30;99.90
30628;DHT22;17394;50.890;4.724;2022-09-09T08:36:47;17.40;99.90
30628;DHT22;17394;50.890;4.724;2022-09-09T08:39:17;17.40;99.90
30628;DHT22;17394;50.890;4.724;2022-09-09T08:47:27;17.40;99.90
30628;DHT22;17394;50.890;4.724;2022-09-09T08:50:22;17.40;99.90
30628;DHT22;17394;50.890;4.724;2022-09-09T08:53:38;17.30;99.90
30628;DHT22;17394;50.890;4.724;2022-09-09T08:56:25;17.40;99.90
30628;DHT22;17394;50.890;4.724;2022-09-09T08:58:55;17.20;99.90
30628;DHT22;17394;50.890;4.724;2022-09-09T09:02:18;17.10;99.90
30628;DHT22;17394;50.890;4.724;2022-09-09T09:05:15;17.00;99.90
30628;DHT22;17394;50.890;4.724;2022-09-09T09:08:08;16.90;99.90
30628;DHT22;17394;50.890;4.724;2022-09-09T09:10:51;16.90;99.90
30628;DHT22;17394;50.890;4.724;2022-09-09T09:16:06;16.80;99.90
30628;DHT22;17394;50.890;4.724;2022-09-09T09:18:37;16.80;99.90
30628;DHT22;17394;50.890;4.724;2022-09-09T09:30:36;16.80;99.90
30628;DHT22;17394;50.890;4.724;2022-09-09T09:36:10;16.90;99.90
30628;DHT22;17394;50.890;4.724;2022-09-09T09:38:37;16.90;99.90
30628;DHT22;17394;50.890;4.724;2022-09-09T09:41:04;16.90;99.90
30628;DHT22;17394;50.890;4.724;2022-09-09T09:43:41;16.80;99.90
30628;DHT22;17394;50.890;4.724;2022-09-09T09:46:22;16.80;99.90
30628;DHT22;17394;50.890;4.724;2022-09-09T09:49:04;16.90;99.90
30628;DHT22;17394;50.890;4.724;2022-09-09T09:51:33;16.90;99.90
30628;DHT22;17394;50.890;4.724;2022-09-09T09:54:31;16.80;99.90
30628;DHT22;17394;50.890;4.724;2022-09-09T09:57:14;17.10;99.90
30628;DHT22;17394;50.890;4.724;2022-09-09T09:59:43;16.80;99.90
30628;DHT22;17394;50.890;4.724;2022-09-09T10:02:25;16.80;99.90
30628;DHT22;17394;50.890;4.724;2022-09-09T10:05:27;16.90;99.90
30628;DHT22;17394;50.890;4.724;2022-09-09T10:08:10;16.90;99.90
30628;DHT22;17394;50.890;4.724;2022-09-09T10:19:31;16.90;99.90
30628;DHT22;17394;50.890;4.724;2022-09-09T10:22:25;16.90;99.90
30628;DHT22;17394;50.890;4.724;2022-09-09T10:40:26;16.80;99.90
30628;DHT22;17394;50.890;4.724;2022-09-09T10:53:01;16.70;99.90
30628;DHT22;17394;50.890;4.724;2022-09-09T10:55:52;16.70;99.90
30628;DHT22;17394;50.890;4.724;2022-09-09T10:58:33;16.80;99.90
30628;DHT22;17394;50.890;4.724;2022-09-09T11:01:24;16.90;99.90
30628;DHT22;17394;50.890;4.724;2022-09-09T11:06:55;17.10;99.90
30628;DHT22;17394;50.890;4.724;2022-09-09T11:09:28;17.30;99.90
30628;DHT22;17394;50.890;4.724;2022-09-09T11:12:01;17.40;99.90
30628;DHT22;17394;50.890;4.724;2022-09-09T11:15:08;17.60;99.90
30628;DHT22;17394;50.890;4.724;2022-09-09T11:17:55;17.70;99.90
30628;DHT22;17394;50.890;4.724;2022-09-09T11:20:23;17.70;99.90
30628;DHT22;17394;50.890;4.724;2022-09-09T11:25:49;17.80;99.90
30628;DHT22;17394;50.890;4.724;2022-09-09T11:28:50;18.00;99.90
30628;DHT22;17394;50.890;4.724;2022-09-09T11:40:35;18.60;99.90
30628;DHT22;17394;50.890;4.724;2022-09-09T11:43:13;18.90;99.90
30628;DHT22;17394;50.890;4.724;2022-09-09T11:45:43;19.10;99.90
30628;DHT22;17394;50.890;4.724;2022-09-09T11:51:07;19.20;99.90
30628;DHT22;17394;50.890;4.724;2022-09-09T11:56:42;19.20;99.90
30628;DHT22;17394;50.890;4.724;2022-09-09T11:59:31;19.30;99.90
30628;DHT22;17394;50.890;4.724;2022-09-09T12:02:19;19.30;99.90
30628;DHT22;17394;50.890;4.724;2022-09-09T12:05:05;19.20;99.90
30628;DHT22;17394;50.890;4.724;2022-09-09T12:07:39;19.10;99.90
30628;DHT22;17394;50.890;4.724;2022-09-09T12:10:31;19.10;99.90
30628;DHT22;17394;50.890;4.724;2022-09-09T12:13:22;19.10;99.90
30628;DHT22;17394;50.890;4.724;2022-09-09T12:15:58;19.20;99.90
30628;DHT22;17394;50.890;4.724;2022-09-09T12:18:35;19.20;99.90
30628;DHT22;17394;50.890;4.724;2022-09-09T12:24:41;19.40;99.90
30628;DHT22;17394;50.890;4.724;2022-09-09T12:27:58;19.30;99.90
30628;DHT22;17394;50.890;4.724;2022-09-09T12:30:47;19.20;99.90
30628;DHT22;17394;50.890;4.724;2022-09-09T12:33:19;19.20;99.90
30628;DHT22;17394;50.890;4.724;2022-09-09T12:35:55;19.20;99.90
30628;DHT22;17394;50.890;4.724;2022-09-09T12:38:38;19.30;99.90
30628;DHT22;17394;50.890;4.724;2022-09-09T12:41:25;19.40;99.90
30628;DHT22;17394;50.890;4.724;2022-09-09T12:44:02;19.50;99.90
30628;DHT22;17394;50.890;4.724;2022-09-09T12:46:45;19.60;99.90
30628;DHT22;17394;50.890;4.724;2022-09-09T12:49:37;19.60;99.90
30628;DHT22;17394;50.890;4.724;2022-09-09T12:52:14;19.70;99.90
30628;DHT22;17394;50.890;4.724;2022-09-09T12:54:47;19.90;99.90
30628;DHT22;17394;50.890;4.724;2022-09-09T12:57:15;19.70;99.90
30628;DHT22;17394;50.890;4.724;2022-09-09T12:59:44;19.70;99.90
30628;DHT22;17394;50.890;4.724;2022-09-09T13:02:26;19.60;99.90
30628;DHT22;17394;50.890;4.724;2022-09-09T13:04:54;19.50;99.90
30628;DHT22;17394;50.890;4.724;2022-09-09T13:07:21;19.50;99.90
30628;DHT22;17394;50.890;4.724;2022-09-09T13:09:49;19.60;99.90
30628;DHT22;17394;50.890;4.724;2022-09-09T13:12:21;19.70;99.90
30628;DHT22;17394;50.890;4.724;2022-09-09T13:14:57;19.90;99.90
30628;DHT22;17394;50.890;4.724;2022-09-09T13:17:26;19.90;99.90
30628;DHT22;17394;50.890;4.724;2022-09-09T13:19:56;19.90;99.90
30628;DHT22;17394;50.890;4.724;2022-09-09T13:22:38;19.90;99.90
30628;DHT22;17394;50.890;4.724;2022-09-09T13:25:27;20.10;99.90
30628;DHT22;17394;50.890;4.724;2022-09-09T13:28:02;20.30;99.90
30628;DHT22;17394;50.890;4.724;2022-09-09T13:30:35;20.40;99.90
30628;DHT22;17394;50.890;4.724;2022-09-09T13:38:22;20.20;99.90
30628;DHT22;17394;50.890;4.724;2022-09-09T13:41:05;20.20;99.90
30628;DHT22;17394;50.890;4.724;2022-09-09T13:43:47;20.30;99.90
30628;DHT22;17394;50.890;4.724;2022-09-09T13:51:43;20.40;99.90
30628;DHT22;17394;50.890;4.724;2022-09-09T13:54:14;20.40;99.90
30628;DHT22;17394;50.890;4.724;2022-09-09T13:56:43;20.40;99.90
30628;DHT22;17394;50.890;4.724;2022-09-09T13:59:16;20.40;99.90
30628;DHT22;17394;50.890;4.724;2022-09-09T14:01:44;20.30;99.90
30628;DHT22;17394;50.890;4.724;2022-09-09T14:04:11;20.20;99.90
30628;DHT22;17394;50.890;4.724;2022-09-09T14:06:39;20.20;99.90
30628;DHT22;17394;50.890;4.724;2022-09-09T14:09:09;20.20;99.90
30628;DHT22;17394;50.890;4.724;2022-09-09T14:11:36;20.10;99.90
30628;DHT22;17394;50.890;4.724;2022-09-09T14:14:02;20.20;99.90
30628;DHT22;17394;50.890;4.724;2022-09-09T14:16:29;20.30;99.90
30628;DHT22;17394;50.890;4.724;2022-09-09T14:18:55;20.50;99.90
30628;DHT22;17394;50.890;4.724;2022-09-09T14:21:27;20.70;99.90
30628;DHT22;17394;50.890;4.724;2022-09-09T14:23:53;20.90;99.90
30628;DHT22;17394;50.890;4.724;2022-09-09T14:26:22;20.90;99.90
30628;DHT22;17394;50.890;4.724;2022-09-09T14:28:50;20.80;99.90
30628;DHT22;17394;50.890;4.724;2022-09-09T14:31:18;20.80;99.90
30628;DHT22;17394;50.890;4.724;2022-09-09T14:33:45;20.70;99.90
30628;DHT22;17394;50.890;4.724;2022-09-09T14:36:11;20.60;99.90
30628;DHT22;17394;50.890;4.724;2022-09-09T14:38:38;20.60;99.90
30628;DHT22;17394;50.890;4.724;2022-09-09T14:41:15;20.60;99.90
30628;DHT22;17394;50.890;4.724;2022-09-09T14:43:45;20.60;99.90
30628;DHT22;17394;50.890;4.724;2022-09-09T14:46:15;20.60;99.90
30628;DHT22;17394;50.890;4.724;2022-09-09T14:48:42;20.60;99.90
30628;DHT22;17394;50.890;4.724;2022-09-09T14:51:24;20.70;99.90
30628;DHT22;17394;50.890;4.724;2022-09-09T14:53:59;20.50;99.90
30628;DHT22;17394;50.890;4.724;2022-09-09T14:56:30;20.50;99.90
30628;DHT22;17394;50.890;4.724;2022-09-09T14:58:59;20.50;99.90
30628;DHT22;17394;50.890;4.724;2022-09-09T15:01:27;20.50;99.90
30628;DHT22;17394;50.890;4.724;2022-09-09T15:04:03;20.50;99.90
30628;DHT22;17394;50.890;4.724;2022-09-09T15:06:34;20.60;99.90
30628;DHT22;17394;50.890;4.724;2022-09-09T15:09:03;20.80;99.90
30628;DHT22;17394;50.890;4.724;2022-09-09T15:11:34;20.80;99.90
30628;DHT22;17394;50.890;4.724;2022-09-09T15:14:04;20.80;99.90
30628;DHT22;17394;50.890;4.724;2022-09-09T15:16:31;20.80;99.90
30628;DHT22;17394;50.890;4.724;2022-09-09T15:19:00;20.90;99.90
30628;DHT22;17394;50.890;4.724;2022-09-09T15:21:34;20.90;99.90
30628;DHT22;17394;50.890;4.724;2022-09-09T15:24:01;20.90;99.90
30628;DHT22;17394;50.890;4.724;2022-09-09T15:26:28;20.90;99.90
30628;DHT22;17394;50.890;4.724;2022-09-09T15:28:56;20.80;99.90
30628;DHT22;17394;50.890;4.724;2022-09-09T15:31:31;20.80;99.90
30628;DHT22;17394;50.890;4.724;2022-09-09T15:34:04;20.80;99.90
30628;DHT22;17394;50.890;4.724;2022-09-09T15:36:40;20.80;99.90
30628;DHT22;17394;50.890;4.724;2022-09-09T15:39:11;20.70;99.90
30628;DHT22;17394;50.890;4.724;2022-09-09T15:41:43;20.70;99.90
30628;DHT22;17394;50.890;4.724;2022-09-09T15:44:10;20.60;99.90
30628;DHT22;17394;50.890;4.724;2022-09-09T15:46:52;20.60;99.90
30628;DHT22;17394;50.890;4.724;2022-09-09T15:49:24;20.70;99.90
30628;DHT22;17394;50.890;4.724;2022-09-09T15:51:55;20.80;99.90
30628;DHT22;17394;50.890;4.724;2022-09-09T15:54:25;20.80;99.90
30628;DHT22;17394;50.890;4.724;2022-09-09T15:56:57;20.80;99.90
30628;DHT22;17394;50.890;4.724;2022-09-09T15:59:27;20.70;99.90
30628;DHT22;17394;50.890;4.724;2022-09-09T16:01:59;20.60;99.90
30628;DHT22;17394;50.890;4.724;2022-09-09T16:04:27;20.50;99.90
30628;DHT22;17394;50.890;4.724;2022-09-09T16:07:04;20.50;99.90
30628;DHT22;17394;50.890;4.724;2022-09-09T16:09:33;20.50;99.90
30628;DHT22;17394;50.890;4.724;2022-09-09T16:12:02;20.50;99.90
30628;DHT22;17394;50.890;4.724;2022-09-09T16:14:28;20.50;99.90
30628;DHT22;17394;50.890;4.724;2022-09-09T16:17:00;20.50;99.90
30628;DHT22;17394;50.890;4.724;2022-09-09T16:59:28;19.30;99.90
30628;DHT22;17394;50.890;4.724;2022-09-09T17:01:54;19.20;99.90
30628;DHT22;17394;50.890;4.724;2022-09-09T17:04:26;19.00;99.90
30628;DHT22;17394;50.890;4.724;2022-09-09T17:06:55;18.90;99.90
30628;DHT22;17394;50.890;4.724;2022-09-09T17:09:25;18.80;99.90
30628;DHT22;17394;50.890;4.724;2022-09-09T17:11:54;18.70;99.90
30628;DHT22;17394;50.890;4.724;2022-09-09T17:14:22;18.60;99.90
30628;DHT22;17394;50.890;4.724;2022-09-09T17:16:50;18.60;99.90
30628;DHT22;17394;50.890;4.724;2022-09-09T17:19:17;18.50;99.90
30628;DHT22;17394;50.890;4.724;2022-09-09T18:38:06;16.90;99.90
30628;DHT22;17394;50.890;4.724;2022-09-09T18:40:32;16.80;99.90
30628;DHT22;17394;50.890;4.724;2022-09-09T18:42:58;16.80;99.90
30628;DHT22;17394;50.890;4.724;2022-09-09T18:45:29;16.80;99.90
30628;DHT22;17394;50.890;4.724;2022-09-09T18:47:55;16.70;99.90
30628;DHT22;17394;50.890;4.724;2022-09-09T18:50:27;16.70;99.90
30628;DHT22;17394;50.890;4.724;2022-09-09T18:52:54;16.70;99.90
30628;DHT22;17394;50.890;4.724;2022-09-09T18:55:23;16.60;99.90
30628;DHT22;17394;50.890;4.724;2022-09-09T18:57:55;16.60;99.90
30628;DHT22;17394;50.890;4.724;2022-09-09T19:00:27;16.60;99.90
30628;DHT22;17394;50.890;4.724;2022-09-09T19:02:54;16.60;99.90
30628;DHT22;17394;50.890;4.724;2022-09-09T19:05:23;16.50;99.90
30628;DHT22;17394;50.890;4.724;2022-09-09T19:07:50;16.50;99.90
30628;DHT22;17394;50.890;4.724;2022-09-09T19:10:16;16.40;99.90
30628;DHT22;17394;50.890;4.724;2022-09-09T19:12:43;16.40;99.90
30628;DHT22;17394;50.890;4.724;2022-09-09T19:15:12;16.40;99.90
30628;DHT22;17394;50.890;4.724;2022-09-09T19:17:42;16.40;99.90
30628;DHT22;17394;50.890;4.724;2022-09-09T19:20:08;16.30;99.90
30628;DHT22;17394;50.890;4.724;2022-09-09T19:22:35;16.30;99.90
30628;DHT22;17394;50.890;4.724;2022-09-09T19:25:02;16.30;99.90
30628;DHT22;17394;50.890;4.724;2022-09-09T19:27:29;16.20;99.90
30628;DHT22;17394;50.890;4.724;2022-09-09T19:29:56;16.20;99.90
30628;DHT22;17394;50.890;4.724;2022-09-09T19:32:23;16.20;99.90
30628;DHT22;17394;50.890;4.724;2022-09-09T19:34:50;16.20;99.90
30628;DHT22;17394;50.890;4.724;2022-09-09T19:37:20;16.20;99.90
30628;DHT22;17394;50.890;4.724;2022-09-09T19:39:59;16.20;99.90
30628;DHT22;17394;50.890;4.724;2022-09-09T19:42:26;16.20;99.90
30628;DHT22;17394;50.890;4.724;2022-09-09T19:45:29;16.30;99.90
30628;DHT22;17394;50.890;4.724;2022-09-09T19:48:06;16.30;99.90
30628;DHT22;17394;50.890;4.724;2022-09-09T19:50:35;16.40;99.90
30628;DHT22;17394;50.890;4.724;2022-09-09T19:53:03;16.40;99.90
30628;DHT22;17394;50.890;4.724;2022-09-09T19:55:29;16.40;99.90
30628;DHT22;17394;50.890;4.724;2022-09-09T19:57:57;16.50;99.90
30628;DHT22;17394;50.890;4.724;2022-09-09T20:00:23;16.50;99.90
30628;DHT22;17394;50.890;4.724;2022-09-09T20:02:49;16.50;99.90
30628;DHT22;17394;50.890;4.724;2022-09-09T20:05:16;16.50;99.90
30628;DHT22;17394;50.890;4.724;2022-09-09T20:07:48;16.50;99.90
30628;DHT22;17394;50.890;4.724;2022-09-09T20:10:16;16.50;99.90
30628;DHT22;17394;50.890;4.724;2022-09-09T20:12:43;16.50;99.90
30628;DHT22;17394;50.890;4.724;2022-09-09T20:15:09;16.50;99.90